createdAt,value
2023-08-30T00:08:14.716Z,97.0
2023-08-30T00:18:14.358Z,97.8
2023-08-30T00:28:14.851Z,97.6
2023-08-30T00:38:14.439Z,97.6
2023-08-30T00:48:15.378Z,96.9
2023-08-30T00:58:15.076Z,95.2
2023-08-30T01:08:14.951Z,92.8
2023-08-30T01:18:14.517Z,91.7
2023-08-30T01:28:14.344Z,90.7
2023-08-30T01:38:14.374Z,91.4
2023-08-30T01:48:14.494Z,91.0
2023-08-30T01:58:14.218Z,90.9
2023-08-30T02:08:14.463Z,90.9
2023-08-30T02:18:14.864Z,92.0
2023-08-30T02:28:14.788Z,91.9
2023-08-30T02:38:14.958Z,91.2
2023-08-30T02:48:14.950Z,90.8
2023-08-30T02:58:15.005Z,90.3
2023-08-30T03:08:14.720Z,89.8
2023-08-30T03:18:15.009Z,90.3
2023-08-30T03:28:14.758Z,89.9
2023-08-30T03:38:14.638Z,88.9
2023-08-30T03:48:14.448Z,88.2
2023-08-30T03:58:14.545Z,88.3
2023-08-30T04:08:14.705Z,88.6
2023-08-30T04:18:14.928Z,88.8
2023-08-30T04:28:14.717Z,88.7
2023-08-30T04:38:15.292Z,88.3
2023-08-30T04:48:15.027Z,88.7
2023-08-30T04:58:14.412Z,89.4
2023-08-30T05:08:14.715Z,90.4
2023-08-30T05:18:14.489Z,91.1
2023-08-30T05:28:14.825Z,91.6
2023-08-30T05:38:14.661Z,91.5
2023-08-30T05:48:15.647Z,91.2
2023-08-30T05:58:14.610Z,92.0
2023-08-30T06:08:14.526Z,91.0
2023-08-30T06:18:14.613Z,89.3
2023-08-30T06:28:14.586Z,87.2
2023-08-30T06:38:14.796Z,84.3
2023-08-30T06:48:15.033Z,83.7
2023-08-30T06:58:16.457Z,85.6
2023-08-30T07:08:14.471Z,87.0
2023-08-30T07:18:14.832Z,85.4
2023-08-30T07:28:15.990Z,84.3
2023-08-30T07:38:15.117Z,84.4
2023-08-30T07:48:14.608Z,86.3
2023-08-30T07:58:14.722Z,88.7
2023-08-30T08:08:14.607Z,90.5
2023-08-30T08:18:15.233Z,91.8
2023-08-30T08:28:14.904Z,92.5
2023-08-30T08:38:14.730Z,94.3
2023-08-30T08:48:15.301Z,94.9
2023-08-30T08:58:14.870Z,95.0
2023-08-30T09:08:15.388Z,95.8
2023-08-30T09:18:14.946Z,95.9
2023-08-30T09:28:14.848Z,95.7
2023-08-30T09:38:15.139Z,96.0
2023-08-30T09:48:15.123Z,96.1
2023-08-30T09:58:17.383Z,95.6
2023-08-30T10:08:14.930Z,96.2
2023-08-30T10:18:15.050Z,96.0
2023-08-30T10:28:15.304Z,96.3
2023-08-30T10:38:16.047Z,96.4
2023-08-30T10:48:15.515Z,96.8
2023-08-30T10:58:16.349Z,96.6
2023-08-30T11:08:15.036Z,97.1
2023-08-30T11:18:14.939Z,96.8
2023-08-30T11:28:15.401Z,97.1
2023-08-30T11:38:15.225Z,96.7
2023-08-30T11:48:16.953Z,96.3
2023-08-30T11:58:15.156Z,94.7
2023-08-30T12:08:15.193Z,92.6
2023-08-30T12:18:15.440Z,90.6
2023-08-30T12:28:15.706Z,88.8
2023-08-30T12:38:15.106Z,90.5
2023-08-30T12:48:14.931Z,83.0
2023-08-30T12:58:15.596Z,79.9
2023-08-30T13:08:15.070Z,78.8
2023-08-30T13:18:15.323Z,77.4
2023-08-30T13:28:16.165Z,78.4
2023-08-30T13:38:15.135Z,78.0
2023-08-30T13:48:16.181Z,72.0
2023-08-30T13:58:15.112Z,74.5
2023-08-30T14:08:14.984Z,72.9
2023-08-30T14:18:15.645Z,71.7
2023-08-30T14:28:14.960Z,73.3
2023-08-30T14:38:15.412Z,69.3
2023-08-30T14:48:15.035Z,73.7
2023-08-30T14:58:15.151Z,73.6
2023-08-30T15:08:15.319Z,71.4
2023-08-30T15:18:15.638Z,70.8
2023-08-30T15:28:14.980Z,73.2
2023-08-30T15:38:14.979Z,75.4
2023-08-30T15:48:16.602Z,75.8
2023-08-30T15:58:15.171Z,74.2
2023-08-30T16:08:15.386Z,76.4
2023-08-30T16:18:15.497Z,77.5
2023-08-30T16:28:15.090Z,77.3
2023-08-30T16:38:15.846Z,78.0
2023-08-30T16:48:15.448Z,77.2
2023-08-30T16:58:15.203Z,77.5
2023-08-30T17:08:15.409Z,77.1
2023-08-30T17:18:15.252Z,79.9
2023-08-30T17:28:15.130Z,78.8
2023-08-30T17:38:15.104Z,81.1
2023-08-30T17:48:15.058Z,81.0
2023-08-30T17:58:15.538Z,82.7
2023-08-30T18:08:15.290Z,84.6
2023-08-30T18:18:15.433Z,86.5
2023-08-30T18:28:15.195Z,87.3
2023-08-30T18:38:15.261Z,88.3
2023-08-30T18:48:15.780Z,88.7
2023-08-30T18:58:15.212Z,90.1
2023-08-30T19:08:15.656Z,91.4
2023-08-30T19:18:15.809Z,92.0
2023-08-30T19:28:15.542Z,92.7
2023-08-30T19:38:15.350Z,92.7
2023-08-30T19:48:15.174Z,93.1
2023-08-30T19:58:15.486Z,92.6
2023-08-30T20:08:15.265Z,91.6
2023-08-30T20:18:15.798Z,91.5
2023-08-30T20:28:15.201Z,91.1
2023-08-30T20:38:16.153Z,91.1
2023-08-30T20:48:15.749Z,90.4
2023-08-30T20:58:15.190Z,89.6
2023-08-30T21:08:16.320Z,90.1
2023-08-30T21:18:16.258Z,90.7
2023-08-30T21:28:15.204Z,91.7
2023-08-30T21:38:15.094Z,91.8
2023-08-30T21:48:15.674Z,91.7
2023-08-30T21:58:15.168Z,91.6
2023-08-30T22:08:15.283Z,91.8
2023-08-30T22:18:16.654Z,91.5
2023-08-30T22:28:15.128Z,91.5
2023-08-30T22:38:15.439Z,90.6
2023-08-30T22:48:15.604Z,91.3
2023-08-30T22:58:15.567Z,91.4
2023-08-30T23:08:15.946Z,91.9
2023-08-30T23:18:21.727Z,91.7
2023-08-30T23:28:18.870Z,91.2
2023-08-30T23:38:15.551Z,91.0
2023-08-30T23:48:16.455Z,90.8
2023-08-30T23:58:16.316Z,90.9
